Time;durP1;ratioP1;P1;durP2;ratioP2;P2;SDS_P1;SDS_P2;PMS_P1;PMS_P2;Temp;Humidity;BMP_temperature;BMP_pressure;BME280_temperature;BME280_humidity;BME280_pressure;Samples;Min_cycle;Max_cycle;Signal;HPM_P1;HPM_P2
2023/05/02 10:05:17;;;;;;;;;;;17.70;64.90;;;;;;6266964;22;19929;-76
2023/05/02 10:07:45;;;;;;;;;;;17.70;64.80;;;;;;6244596;22;19911;-79
2023/05/02 10:10:12;;;;;;;;;;;17.70;65.10;;;;;;6270289;22;19907;-76
2023/05/02 10:12:39;;;;;;;;;;;17.60;65.10;;;;;;6244148;22;19907;-77
2023/05/02 10:15:06;;;;;;;;;;;17.60;65.20;;;;;;6244378;22;19991;-77
2023/05/02 10:17:36;;;;;;;;;;;17.60;65.30;;;;;;6244387;22;19907;-78
2023/05/02 10:20:03;;;;;;;;;;;17.60;65.10;;;;;;6243815;22;19914;-77
2023/05/02 10:22:30;;;;;;;;;;;17.60;64.90;;;;;;6271299;22;19907;-75
2023/05/02 10:24:57;;;;;;;;;;;17.50;64.80;;;;;;6269957;22;19918;-77
2023/05/02 10:27:24;;;;;;;;;;;17.50;65.50;;;;;;6244970;22;19982;-72
2023/05/02 10:29:51;;;;;;;;;;;17.50;64.90;;;;;;6244974;22;20241;-72
2023/05/02 10:32:18;;;;;;;;;;;17.50;65.10;;;;;;6271282;22;20110;-72
2023/05/02 10:34:45;;;;;;;;;;;17.50;65.20;;;;;;6243797;22;20474;-71
2023/05/02 10:37:11;;;;;;;;;;;17.50;65.10;;;;;;6244948;22;19915;-72
2023/05/02 10:39:38;;;;;;;;;;;17.50;64.70;;;;;;6272933;22;20321;-72
2023/05/02 10:42:05;;;;;;;;;;;17.40;64.80;;;;;;6244273;22;20057;-72
2023/05/02 10:44:33;;;;;;;;;;;17.40;65.30;;;;;;6245150;22;19915;-72
2023/05/02 10:46:59;;;;;;;;;;;17.40;66.00;;;;;;6269856;22;20014;-72
2023/05/02 10:49:28;;;;;;;;;;;17.30;66.10;;;;;;6244532;22;19907;-72
2023/05/02 10:51:55;;;;;;;;;;;17.30;65.50;;;;;;6244979;22;19907;-72
2023/05/02 10:54:22;;;;;;;;;;;17.30;65.30;;;;;;6272049;22;19926;-72
2023/05/02 10:59:37;;;;;;;;;;;17.20;65.60;;;;;;6270788;22;19920;-72
2023/05/02 11:02:27;;;;;;;;;;;17.20;65.40;;;;;;6243464;22;20103;-72
2023/05/02 11:59:15;;;;;;;;;;;16.90;66.30;;;;;;6269385;22;19926;-72
2023/05/02 12:01:49;;;;;;;;;;;16.90;67.00;;;;;;6273010;22;19915;-73
2023/05/02 12:04:20;;;;;;;;;;;16.90;67.70;;;;;;6245315;22;20044;-71
2023/05/02 12:06:59;;;;;;;;;;;16.80;67.80;;;;;;6271831;22;19990;-74
2023/05/02 12:09:26;;;;;;;;;;;16.80;66.90;;;;;;6273611;22;19907;-75
2023/05/02 12:11:53;;;;;;;;;;;16.80;67.80;;;;;;6272604;22;20211;-74
2023/05/02 12:14:27;;;;;;;;;;;16.80;67.30;;;;;;6273574;22;20283;-75
2023/05/02 12:16:54;;;;;;;;;;;16.80;66.60;;;;;;6273607;22;19918;-75
2023/05/02 12:19:21;;;;;;;;;;;16.70;66.90;;;;;;6246498;22;19903;-75
2023/05/02 12:21:48;;;;;;;;;;;16.70;67.10;;;;;;6271280;22;19903;-75
2023/05/02 12:24:15;;;;;;;;;;;16.70;67.20;;;;;;6244291;22;19908;-74
2023/05/02 12:26:41;;;;;;;;;;;16.70;66.90;;;;;;6271672;22;19976;-77
2023/05/02 12:29:08;;;;;;;;;;;16.70;66.90;;;;;;6273306;22;20010;-77
2023/05/02 12:31:35;;;;;;;;;;;16.60;67.30;;;;;;6246166;22;19919;-79
2023/05/02 12:34:02;;;;;;;;;;;16.60;67.70;;;;;;6247194;22;19943;-80
2023/05/02 12:36:28;;;;;;;;;;;16.50;68.20;;;;;;6272974;22;19903;-74
2023/05/02 12:38:58;;;;;;;;;;;16.50;68.80;;;;;;6272253;22;19911;-75
2023/05/02 12:41:31;;;;;;;;;;;16.40;69.30;;;;;;6272925;22;19903;-74
2023/05/02 12:43:59;;;;;;;;;;;16.40;69.60;;;;;;6270233;22;19907;-74
2023/05/02 12:46:27;;;;;;;;;;;16.30;70.00;;;;;;6269317;22;19939;-74
2023/05/02 12:49:10;;;;;;;;;;;16.30;70.30;;;;;;6273245;22;19908;-73
2023/05/02 12:51:38;;;;;;;;;;;16.30;70.70;;;;;;6273313;22;20362;-73
2023/05/02 12:54:05;;;;;;;;;;;16.20;71.20;;;;;;6272989;22;19938;-74
2023/05/02 12:56:39;;;;;;;;;;;16.20;71.70;;;;;;6273804;22;19915;-76
2023/05/02 12:59:06;;;;;;;;;;;16.20;71.80;;;;;;6244895;22;19926;-75
2023/05/02 13:01:33;;;;;;;;;;;16.20;72.30;;;;;;6272629;22;19907;-76
2023/05/02 13:04:00;;;;;;;;;;;16.20;72.20;;;;;;6273580;22;19915;-74
2023/05/02 13:06:26;;;;;;;;;;;16.20;72.60;;;;;;6245458;22;19907;-74
2023/05/02 13:08:53;;;;;;;;;;;16.10;72.60;;;;;;6275726;22;19930;-72
2023/05/02 13:11:20;;;;;;;;;;;16.10;73.00;;;;;;6276454;22;19911;-72
2023/05/02 13:13:47;;;;;;;;;;;16.10;73.70;;;;;;6247953;22;19907;-72
2023/05/02 13:16:13;;;;;;;;;;;16.00;74.70;;;;;;6275866;22;19907;-72
2023/05/02 13:18:40;;;;;;;;;;;16.10;75.10;;;;;;6276678;22;19910;-72
2023/05/02 13:21:07;;;;;;;;;;;16.00;75.20;;;;;;6276879;22;19904;-72
2023/05/02 13:23:33;;;;;;;;;;;15.90;75.10;;;;;;6247372;22;19903;-72
2023/05/02 13:26:00;;;;;;;;;;;15.90;75.00;;;;;;6274899;22;19903;-73
2023/05/02 13:28:29;;;;;;;;;;;15.90;74.90;;;;;;6276177;22;20249;-70
2023/05/02 13:30:55;;;;;;;;;;;15.80;74.80;;;;;;6274598;22;20274;-70
2023/05/02 13:33:22;;;;;;;;;;;15.80;74.90;;;;;;6275063;22;20011;-71
2023/05/02 13:35:49;;;;;;;;;;;15.80;75.10;;;;;;6275581;22;19911;-72
2023/05/02 13:38:15;;;;;;;;;;;15.80;75.10;;;;;;6274442;22;20337;-72
2023/05/02 13:40:42;;;;;;;;;;;15.70;75.20;;;;;;6275832;22;19903;-72
2023/05/02 13:43:09;;;;;;;;;;;15.70;75.40;;;;;;6274537;22;19907;-71
2023/05/02 13:45:35;;;;;;;;;;;15.70;75.40;;;;;;6275034;22;19910;-72
2023/05/02 13:48:02;;;;;;;;;;;15.70;75.10;;;;;;6276200;22;20323;-72
2023/05/02 13:50:29;;;;;;;;;;;15.70;75.30;;;;;;6276093;22;19910;-72
2023/05/02 13:52:56;;;;;;;;;;;15.70;75.20;;;;;;6276810;22;19936;-72
2023/05/02 13:55:23;;;;;;;;;;;15.70;75.10;;;;;;6248247;22;19957;-72
2023/05/02 13:57:49;;;;;;;;;;;15.60;75.20;;;;;;6248554;22;19911;-72
2023/05/02 14:00:16;;;;;;;;;;;15.60;75.30;;;;;;6245958;22;19916;-71
2023/05/02 14:02:45;;;;;;;;;;;15.60;75.30;;;;;;6245779;23;19982;-72
2023/05/02 14:05:12;;;;;;;;;;;15.50;75.50;;;;;;6244562;23;19998;-72
2023/05/02 14:07:39;;;;;;;;;;;15.50;75.90;;;;;;6218504;23;19903;-72
2023/05/02 14:10:06;;;;;;;;;;;15.50;76.20;;;;;;6246542;23;19908;-72
2023/05/02 14:12:32;;;;;;;;;;;15.40;76.50;;;;;;6245889;23;20238;-72
2023/05/02 16:28:40;;;;;;;;;;;15.20;75.30;;;;;;6271693;22;19938;-72
2023/05/02 16:31:09;;;;;;;;;;;15.20;74.50;;;;;;6275814;22;20327;-72
2023/05/02 16:33:37;;;;;;;;;;;15.20;74.50;;;;;;6250222;22;20358;-72
2023/05/02 16:36:04;;;;;;;;;;;15.20;74.80;;;;;;6276006;22;19911;-72
2023/05/02 16:38:31;;;;;;;;;;;15.20;74.80;;;;;;6249038;22;19903;-72
2023/05/02 16:40:58;;;;;;;;;;;15.20;74.80;;;;;;6248508;22;19904;-72
2023/05/02 16:43:24;;;;;;;;;;;15.10;75.10;;;;;;6275552;22;19927;-72
2023/05/02 16:46:04;;;;;;;;;;;15.10;75.10;;;;;;6275497;22;19904;-72
2023/05/02 16:48:31;;;;;;;;;;;15.10;75.00;;;;;;6275684;22;19986;-71
2023/05/02 16:50:59;;;;;;;;;;;15.10;75.20;;;;;;6275772;22;19965;-72
2023/05/02 16:53:26;;;;;;;;;;;15.10;75.70;;;;;;6275804;22;19969;-73
2023/05/02 16:55:53;;;;;;;;;;;15.10;75.30;;;;;;6248064;22;19922;-72
2023/05/02 16:58:20;;;;;;;;;;;15.10;75.40;;;;;;6248498;22;20203;-72
2023/05/02 17:00:47;;;;;;;;;;;15.10;75.30;;;;;;6248308;22;19916;-72
2023/05/02 17:03:13;;;;;;;;;;;15.00;75.50;;;;;;6275479;22;19949;-72
2023/05/02 17:05:40;;;;;;;;;;;15.10;75.70;;;;;;6275838;22;19910;-72
2023/05/02 17:08:07;;;;;;;;;;;15.10;75.70;;;;;;6275257;22;19934;-72
2023/05/02 17:10:34;;;;;;;;;;;15.10;75.50;;;;;;6274405;22;19978;-71
2023/05/02 17:13:01;;;;;;;;;;;15.10;75.60;;;;;;6276134;22;20230;-72
2023/05/02 17:15:28;;;;;;;;;;;15.10;76.10;;;;;;6249174;22;19911;-71
2023/05/02 17:17:54;;;;;;;;;;;15.00;76.00;;;;;;6275027;22;19904;-72
2023/05/02 17:20:21;;;;;;;;;;;15.00;76.50;;;;;;6275463;22;19904;-72
2023/05/02 17:22:48;;;;;;;;;;;14.90;76.40;;;;;;6276303;22;19903;-72
2023/05/02 17:25:14;;;;;;;;;;;14.90;76.60;;;;;;6276157;22;20295;-72
2023/05/02 17:27:41;;;;;;;;;;;14.90;76.10;;;;;;6276071;22;19914;-72
2023/05/02 17:30:08;;;;;;;;;;;14.80;76.60;;;;;;6275998;22;20010;-72
2023/05/02 17:32:36;;;;;;;;;;;14.80;77.10;;;;;;6276325;22;19903;-72
2023/05/02 17:35:03;;;;;;;;;;;14.80;76.90;;;;;;6275687;22;20440;-72
2023/05/02 17:37:31;;;;;;;;;;;14.70;77.30;;;;;;6276083;22;20350;-72
2023/05/02 17:39:59;;;;;;;;;;;14.70;77.10;;;;;;6274892;22;19957;-72
2023/05/02 17:42:26;;;;;;;;;;;14.70;77.00;;;;;;6275651;22;19953;-72
2023/05/02 17:44:53;;;;;;;;;;;14.70;77.10;;;;;;6275610;22;19942;-72
2023/05/02 17:47:20;;;;;;;;;;;14.70;76.90;;;;;;6275534;22;20382;-72
2023/05/02 17:49:50;;;;;;;;;;;14.70;77.00;;;;;;6274838;22;19915;-72
2023/05/02 17:52:16;;;;;;;;;;;14.80;76.90;;;;;;6275043;22;19931;-72
2023/05/02 17:54:43;;;;;;;;;;;14.70;77.00;;;;;;6276265;22;19953;-72
2023/05/02 17:57:11;;;;;;;;;;;14.70;78.10;;;;;;6276071;22;19988;-72
2023/05/02 17:59:38;;;;;;;;;;;14.70;77.80;;;;;;6275467;22;19969;-72
2023/05/02 18:02:05;;;;;;;;;;;14.60;77.80;;;;;;6273995;22;20292;-72
2023/05/02 18:04:33;;;;;;;;;;;14.70;77.70;;;;;;6275302;22;19903;-72
2023/05/02 18:07:00;;;;;;;;;;;14.60;77.80;;;;;;6274641;22;20207;-72
2023/05/02 18:09:27;;;;;;;;;;;14.70;77.70;;;;;;6275630;22;19914;-72
2023/05/02 18:11:57;;;;;;;;;;;14.70;77.50;;;;;;6274012;22;20333;-72
2023/05/02 18:14:24;;;;;;;;;;;14.70;77.20;;;;;;6274418;22;19912;-72
2023/05/02 18:16:50;;;;;;;;;;;14.70;77.20;;;;;;6275356;22;19974;-72
2023/05/02 18:19:17;;;;;;;;;;;14.70;77.20;;;;;;6273996;22;20338;-72
2023/05/02 18:21:44;;;;;;;;;;;14.70;77.30;;;;;;6274364;22;19908;-72
2023/05/02 18:24:10;;;;;;;;;;;14.60;77.60;;;;;;6274861;22;19907;-72
2023/05/02 18:26:37;;;;;;;;;;;14.60;77.60;;;;;;6275226;22;19935;-72
2023/05/02 18:29:04;;;;;;;;;;;14.60;77.70;;;;;;6274033;22;19915;-71
2023/05/02 18:31:31;;;;;;;;;;;14.60;77.90;;;;;;6273848;22;19908;-71
2023/05/02 18:33:57;;;;;;;;;;;14.60;78.20;;;;;;6273928;22;20322;-71
2023/05/02 18:36:25;;;;;;;;;;;14.70;78.10;;;;;;6275010;22;19914;-72
2023/05/02 18:38:52;;;;;;;;;;;14.70;78.30;;;;;;6247514;22;20229;-72
2023/05/02 18:41:19;;;;;;;;;;;14.60;78.20;;;;;;6247060;22;19938;-72
2023/05/02 18:43:46;;;;;;;;;;;14.70;78.30;;;;;;6275252;22;20238;-72
2023/05/02 18:46:13;;;;;;;;;;;14.70;78.20;;;;;;6275544;22;19903;-72
2023/05/02 18:48:39;;;;;;;;;;;14.70;78.00;;;;;;6274281;22;20480;-72
2023/05/02 18:51:06;;;;;;;;;;;14.80;78.00;;;;;;6274465;22;19908;-72
2023/05/02 18:53:33;;;;;;;;;;;14.70;77.70;;;;;;6274939;22;20392;-71
2023/05/02 18:56:00;;;;;;;;;;;14.70;77.60;;;;;;6274087;22;20334;-72
2023/05/02 18:58:27;;;;;;;;;;;14.70;77.40;;;;;;6274608;22;19931;-72
2023/05/02 19:00:53;;;;;;;;;;;14.70;77.30;;;;;;6274213;22;20349;-71
2023/05/02 19:03:20;;;;;;;;;;;14.70;77.30;;;;;;6274515;22;19910;-71
2023/05/02 19:05:50;;;;;;;;;;;14.70;77.20;;;;;;6273669;22;19934;-72
2023/05/02 19:08:16;;;;;;;;;;;14.70;77.10;;;;;;6274274;22;19911;-71
2023/05/02 19:10:43;;;;;;;;;;;14.70;77.00;;;;;;6274763;22;19911;-70
2023/05/02 19:13:10;;;;;;;;;;;14.70;77.10;;;;;;6274647;22;20278;-72
2023/05/02 19:15:36;;;;;;;;;;;14.70;77.40;;;;;;6273782;22;19915;-71
2023/05/02 19:18:03;;;;;;;;;;;14.70;77.30;;;;;;6273732;22;19903;-72
2023/05/02 19:20:30;;;;;;;;;;;14.70;77.30;;;;;;6273175;22;19910;-72
2023/05/02 19:22:57;;;;;;;;;;;14.70;77.40;;;;;;6273723;22;19907;-71
2023/05/02 19:25:23;;;;;;;;;;;14.70;77.50;;;;;;6274415;22;19908;-72
2023/05/02 19:27:51;;;;;;;;;;;14.70;77.70;;;;;;6274993;22;19910;-71
2023/05/02 19:30:19;;;;;;;;;;;14.70;77.60;;;;;;6273768;22;19922;-71
2023/05/02 19:32:46;;;;;;;;;;;14.70;77.70;;;;;;6274771;22;19907;-71
2023/05/02 19:35:12;;;;;;;;;;;14.80;77.50;;;;;;6273702;22;19916;-71
2023/05/02 19:37:39;;;;;;;;;;;14.80;77.20;;;;;;6274349;22;20217;-72
2023/05/02 19:40:07;;;;;;;;;;;14.80;77.10;;;;;;6274512;22;19903;-72
2023/05/02 19:42:33;;;;;;;;;;;14.80;77.10;;;;;;6274823;22;19914;-70
2023/05/02 19:45:00;;;;;;;;;;;14.80;77.10;;;;;;6247025;22;20005;-71
2023/05/02 19:47:27;;;;;;;;;;;14.90;76.80;;;;;;6247872;22;19986;-70
2023/05/02 22:35:56;;;;;;;;;;;16.30;76.30;;;;;;6270899;22;20030;-70
2023/05/02 22:38:23;;;;;;;;;;;16.40;76.00;;;;;;6244809;22;19950;-71
2023/05/02 22:40:49;;;;;;;;;;;16.50;75.60;;;;;;6244658;23;19908;-71
2023/05/02 22:43:16;;;;;;;;;;;16.50;75.80;;;;;;6217761;23;19908;-71
2023/05/02 22:45:43;;;;;;;;;;;16.60;75.30;;;;;;6245406;23;19931;-71
2023/05/02 22:48:10;;;;;;;;;;;16.60;75.60;;;;;;6218272;23;19987;-71
2023/05/02 22:50:37;;;;;;;;;;;16.70;75.00;;;;;;6245003;23;19914;-70
2023/05/02 22:53:04;;;;;;;;;;;16.70;74.40;;;;;;6244773;23;19958;-71
2023/05/02 22:55:31;;;;;;;;;;;16.80;74.50;;;;;;6244841;23;20315;-70
2023/05/02 22:57:58;;;;;;;;;;;16.80;74.10;;;;;;6244637;22;19974;-71
2023/05/02 23:00:24;;;;;;;;;;;16.90;74.10;;;;;;6244995;23;19914;-71
2023/05/02 23:02:51;;;;;;;;;;;16.90;74.10;;;;;;6218500;23;19904;-71
2023/05/02 23:05:18;;;;;;;;;;;17.00;74.00;;;;;;6244542;23;20248;-71
2023/05/02 23:07:45;;;;;;;;;;;17.00;73.90;;;;;;6244931;22;19904;-71
2023/05/02 23:10:11;;;;;;;;;;;17.00;74.60;;;;;;6244786;23;19923;-71
2023/05/02 23:12:38;;;;;;;;;;;17.10;74.50;;;;;;6244477;23;19957;-71
2023/05/02 23:15:05;;;;;;;;;;;17.10;74.10;;;;;;6244896;23;19957;-71
2023/05/02 23:17:32;;;;;;;;;;;17.20;73.60;;;;;;6244785;22;19904;-71
2023/05/02 23:19:59;;;;;;;;;;;17.30;73.30;;;;;;6244703;23;19904;-71
2023/05/02 23:22:26;;;;;;;;;;;17.30;73.50;;;;;;6244943;23;19907;-71
2023/05/02 23:24:52;;;;;;;;;;;17.30;73.60;;;;;;6244611;23;19903;-71
2023/05/02 23:27:19;;;;;;;;;;;17.30;73.20;;;;;;6244834;22;19914;-71
2023/05/02 23:29:47;;;;;;;;;;;17.40;73.20;;;;;;6244625;23;19904;-71
2023/05/02 23:32:15;;;;;;;;;;;17.50;73.20;;;;;;6217962;23;19903;-71
2023/05/02 23:34:41;;;;;;;;;;;17.50;73.00;;;;;;6244549;23;19912;-71
2023/05/02 23:37:08;;;;;;;;;;;17.60;73.30;;;;;;6217723;23;19920;-72
2023/05/02 23:39:35;;;;;;;;;;;17.60;73.50;;;;;;6218526;23;19949;-72
2023/05/02 23:42:02;;;;;;;;;;;17.60;72.60;;;;;;6244533;23;20215;-72
2023/05/02 23:44:30;;;;;;;;;;;17.70;71.70;;;;;;6244884;23;19904;-72
2023/05/02 23:46:57;;;;;;;;;;;17.80;70.10;;;;;;6218226;22;19987;-72
2023/05/02 23:49:24;;;;;;;;;;;17.80;69.70;;;;;;6244523;23;19904;-72
2023/05/02 23:51:51;;;;;;;;;;;17.90;69.30;;;;;;6217631;23;20216;-72
2023/05/02 23:54:18;;;;;;;;;;;17.80;69.80;;;;;;6218125;23;19943;-72
2023/05/02 23:56:45;;;;;;;;;;;17.90;70.20;;;;;;6244617;22;19935;-72
2023/05/02 23:59:12;;;;;;;;;;;18.00;70.30;;;;;;6244497;23;19911;-72
